Kitzville, Minnesota
Current Conditions -  °F | °C
As of 3:53 AM on Thursday 29 Jan 2015 (Local Time) from KHIB Reporting Station
Overcast Overcast  
Wind Chill: 16°   Ceiling: 1100
Heat Index: 28°   Visibility: 10mi
Dew Point: 22°   Wind: 16mph
Humidity: 78%   Direction: 330°NNW
Pressure: 29.92"   Gusts: NA
Location:  47.4158°N, 93.0053°W
Report Text: KHIB 290953Z AUTO 33014KT 10SM OVC011 M02/M06 A2992 RMK AO2 PK WND 33029/0908 SLP153 T10221056
Loading
Personal Weather Stations






























Interactive Weather Map New forecast layout! Learn more

10-Day Weather Forecast

Advertisements
Track Severe Weather on mobile